sensor_id;sensor_type;location;lat;lon;timestamp;temperature;humidity
10276;DHT22;5183;51.190;6.820;2024-03-08T00:01:58;3.30;1.00
10276;DHT22;5183;51.190;6.820;2024-03-08T00:04:25;3.30;1.00
10276;DHT22;5183;51.190;6.820;2024-03-08T00:06:52;3.30;1.00
10276;DHT22;5183;51.190;6.820;2024-03-08T00:09:19;3.30;1.00
10276;DHT22;5183;51.190;6.820;2024-03-08T00:11:47;3.30;1.00
10276;DHT22;5183;51.190;6.820;2024-03-08T00:14:15;3.30;1.00
10276;DHT22;5183;51.190;6.820;2024-03-08T00:16:43;3.30;1.00
10276;DHT22;5183;51.190;6.820;2024-03-08T00:19:10;3.30;1.00
10276;DHT22;5183;51.190;6.820;2024-03-08T00:21:37;3.20;1.00
10276;DHT22;5183;51.190;6.820;2024-03-08T00:24:04;3.20;1.00
10276;DHT22;5183;51.190;6.820;2024-03-08T00:26:31;3.10;1.00
10276;DHT22;5183;51.190;6.820;2024-03-08T00:28:59;3.10;1.00
10276;DHT22;5183;51.190;6.820;2024-03-08T00:31:26;3.10;1.00
10276;DHT22;5183;51.190;6.820;2024-03-08T00:33:55;3.00;1.00
10276;DHT22;5183;51.190;6.820;2024-03-08T00:36:22;3.00;1.00
10276;DHT22;5183;51.190;6.820;2024-03-08T00:38:50;3.00;1.00
10276;DHT22;5183;51.190;6.820;2024-03-08T00:41:17;3.10;1.00
10276;DHT22;5183;51.190;6.820;2024-03-08T00:43:44;3.00;1.00
10276;DHT22;5183;51.190;6.820;2024-03-08T00:46:13;3.00;1.00
10276;DHT22;5183;51.190;6.820;2024-03-08T00:48:40;3.00;1.00
10276;DHT22;5183;51.190;6.820;2024-03-08T00:51:10;2.90;1.00
10276;DHT22;5183;51.190;6.820;2024-03-08T00:53:37;2.80;1.00
10276;DHT22;5183;51.190;6.820;2024-03-08T00:56:04;2.70;1.00
10276;DHT22;5183;51.190;6.820;2024-03-08T00:58:30;2.70;1.00
10276;DHT22;5183;51.190;6.820;2024-03-08T01:00:57;2.60;1.00
10276;DHT22;5183;51.190;6.820;2024-03-08T01:03:25;2.50;1.00
10276;DHT22;5183;51.190;6.820;2024-03-08T01:05:52;2.50;1.00
10276;DHT22;5183;51.190;6.820;2024-03-08T01:08:20;2.40;1.00
10276;DHT22;5183;51.190;6.820;2024-03-08T01:10:48;2.40;1.00
10276;DHT22;5183;51.190;6.820;2024-03-08T01:13:16;2.40;1.00
10276;DHT22;5183;51.190;6.820;2024-03-08T01:15:42;2.30;1.00
10276;DHT22;5183;51.190;6.820;2024-03-08T01:18:09;2.20;1.00
10276;DHT22;5183;51.190;6.820;2024-03-08T01:20:36;2.20;1.00
10276;DHT22;5183;51.190;6.820;2024-03-08T01:23:03;2.10;1.00
10276;DHT22;5183;51.190;6.820;2024-03-08T01:25:34;2.00;1.00
10276;DHT22;5183;51.190;6.820;2024-03-08T01:28:01;2.00;1.00
10276;DHT22;5183;51.190;6.820;2024-03-08T01:30:28;2.00;1.00
10276;DHT22;5183;51.190;6.820;2024-03-08T01:32:54;1.90;1.00
10276;DHT22;5183;51.190;6.820;2024-03-08T01:35:21;1.90;1.00
10276;DHT22;5183;51.190;6.820;2024-03-08T01:37:48;1.90;1.00
10276;DHT22;5183;51.190;6.820;2024-03-08T01:40:16;1.90;1.00
10276;DHT22;5183;51.190;6.820;2024-03-08T01:42:44;1.90;1.00
10276;DHT22;5183;51.190;6.820;2024-03-08T01:45:11;1.90;1.00
10276;DHT22;5183;51.190;6.820;2024-03-08T01:47:38;1.90;1.00
10276;DHT22;5183;51.190;6.820;2024-03-08T01:50:06;1.90;1.00
10276;DHT22;5183;51.190;6.820;2024-03-08T01:52:34;1.90;1.00
10276;DHT22;5183;51.190;6.820;2024-03-08T01:55:02;2.00;1.00
10276;DHT22;5183;51.190;6.820;2024-03-08T01:57:32;2.00;1.00
10276;DHT22;5183;51.190;6.820;2024-03-08T02:00:02;1.90;1.00
10276;DHT22;5183;51.190;6.820;2024-03-08T02:02:32;1.90;1.00
10276;DHT22;5183;51.190;6.820;2024-03-08T02:05:00;1.90;1.00
10276;DHT22;5183;51.190;6.820;2024-03-08T02:07:28;2.00;1.00
10276;DHT22;5183;51.190;6.820;2024-03-08T02:09:55;2.00;1.00
10276;DHT22;5183;51.190;6.820;2024-03-08T02:12:22;1.90;1.00
10276;DHT22;5183;51.190;6.820;2024-03-08T02:14:49;2.00;1.00
10276;DHT22;5183;51.190;6.820;2024-03-08T02:17:17;1.90;1.00
10276;DHT22;5183;51.190;6.820;2024-03-08T02:19:44;1.90;1.00
10276;DHT22;5183;51.190;6.820;2024-03-08T02:22:12;1.90;1.00
10276;DHT22;5183;51.190;6.820;2024-03-08T02:24:39;1.80;1.00
10276;DHT22;5183;51.190;6.820;2024-03-08T02:27:06;1.80;1.00
10276;DHT22;5183;51.190;6.820;2024-03-08T02:29:34;1.80;1.00
10276;DHT22;5183;51.190;6.820;2024-03-08T02:32:00;1.70;1.00
10276;DHT22;5183;51.190;6.820;2024-03-08T02:34:28;1.70;1.00
10276;DHT22;5183;51.190;6.820;2024-03-08T02:36:57;1.70;1.00
10276;DHT22;5183;51.190;6.820;2024-03-08T02:39:25;1.60;1.00
10276;DHT22;5183;51.190;6.820;2024-03-08T02:41:53;1.60;1.00
10276;DHT22;5183;51.190;6.820;2024-03-08T02:44:20;1.50;1.00
10276;DHT22;5183;51.190;6.820;2024-03-08T02:46:47;1.50;1.00
10276;DHT22;5183;51.190;6.820;2024-03-08T02:49:14;1.50;1.00
10276;DHT22;5183;51.190;6.820;2024-03-08T02:51:41;1.50;1.00
10276;DHT22;5183;51.190;6.820;2024-03-08T02:54:08;1.50;1.00
10276;DHT22;5183;51.190;6.820;2024-03-08T02:56:37;1.50;1.00
10276;DHT22;5183;51.190;6.820;2024-03-08T02:59:03;1.50;1.00
10276;DHT22;5183;51.190;6.820;2024-03-08T03:01:30;1.60;1.00
10276;DHT22;5183;51.190;6.820;2024-03-08T03:03:57;1.60;1.00
10276;DHT22;5183;51.190;6.820;2024-03-08T03:06:24;1.60;1.00
10276;DHT22;5183;51.190;6.820;2024-03-08T03:08:51;1.70;1.00
10276;DHT22;5183;51.190;6.820;2024-03-08T03:11:18;1.70;1.00
10276;DHT22;5183;51.190;6.820;2024-03-08T03:13:46;1.70;1.00
10276;DHT22;5183;51.190;6.820;2024-03-08T03:16:17;1.70;1.00
10276;DHT22;5183;51.190;6.820;2024-03-08T03:18:44;1.70;1.00
10276;DHT22;5183;51.190;6.820;2024-03-08T03:21:11;1.80;1.00
10276;DHT22;5183;51.190;6.820;2024-03-08T03:23:38;1.80;1.00
10276;DHT22;5183;51.190;6.820;2024-03-08T03:26:06;1.80;1.00
10276;DHT22;5183;51.190;6.820;2024-03-08T03:28:33;1.70;1.00
10276;DHT22;5183;51.190;6.820;2024-03-08T03:31:01;1.70;1.00
10276;DHT22;5183;51.190;6.820;2024-03-08T03:33:28;1.80;1.00
10276;DHT22;5183;51.190;6.820;2024-03-08T03:35:55;1.80;1.00
10276;DHT22;5183;51.190;6.820;2024-03-08T03:38:22;1.80;1.00
10276;DHT22;5183;51.190;6.820;2024-03-08T03:40:51;1.80;1.00
10276;DHT22;5183;51.190;6.820;2024-03-08T03:43:21;1.80;1.00
10276;DHT22;5183;51.190;6.820;2024-03-08T03:45:48;1.80;1.00
10276;DHT22;5183;51.190;6.820;2024-03-08T03:48:17;1.90;1.00
10276;DHT22;5183;51.190;6.820;2024-03-08T03:50:43;1.90;1.00
10276;DHT22;5183;51.190;6.820;2024-03-08T03:53:10;1.90;1.00
10276;DHT22;5183;51.190;6.820;2024-03-08T03:55:39;1.80;1.00
10276;DHT22;5183;51.190;6.820;2024-03-08T03:58:05;1.80;1.00
10276;DHT22;5183;51.190;6.820;2024-03-08T04:00:32;1.80;1.00
10276;DHT22;5183;51.190;6.820;2024-03-08T04:02:59;1.80;1.00
10276;DHT22;5183;51.190;6.820;2024-03-08T04:05:27;1.90;1.00
10276;DHT22;5183;51.190;6.820;2024-03-08T04:07:54;1.90;1.00
10276;DHT22;5183;51.190;6.820;2024-03-08T04:10:21;2.00;1.00
10276;DHT22;5183;51.190;6.820;2024-03-08T04:12:48;1.90;1.00
10276;DHT22;5183;51.190;6.820;2024-03-08T04:15:15;1.90;1.00
10276;DHT22;5183;51.190;6.820;2024-03-08T04:17:42;1.90;1.00
10276;DHT22;5183;51.190;6.820;2024-03-08T04:20:11;1.90;1.00
10276;DHT22;5183;51.190;6.820;2024-03-08T04:22:41;1.80;1.00
10276;DHT22;5183;51.190;6.820;2024-03-08T04:25:09;1.80;1.00
10276;DHT22;5183;51.190;6.820;2024-03-08T04:27:36;1.80;1.00
10276;DHT22;5183;51.190;6.820;2024-03-08T04:30:03;1.80;1.00
10276;DHT22;5183;51.190;6.820;2024-03-08T04:32:33;1.80;1.00
10276;DHT22;5183;51.190;6.820;2024-03-08T04:34:59;1.80;1.00
10276;DHT22;5183;51.190;6.820;2024-03-08T04:37:27;1.80;1.00
10276;DHT22;5183;51.190;6.820;2024-03-08T04:39:56;1.70;1.00
10276;DHT22;5183;51.190;6.820;2024-03-08T04:42:23;1.70;1.00
10276;DHT22;5183;51.190;6.820;2024-03-08T04:44:50;1.70;1.00
10276;DHT22;5183;51.190;6.820;2024-03-08T04:47:19;1.80;1.00
10276;DHT22;5183;51.190;6.820;2024-03-08T04:49:45;1.70;1.00
10276;DHT22;5183;51.190;6.820;2024-03-08T04:52:12;1.60;1.00
10276;DHT22;5183;51.190;6.820;2024-03-08T04:54:39;1.70;1.00
10276;DHT22;5183;51.190;6.820;2024-03-08T04:57:07;1.60;1.00
10276;DHT22;5183;51.190;6.820;2024-03-08T04:59:34;1.60;1.00
10276;DHT22;5183;51.190;6.820;2024-03-08T05:02:01;1.80;1.00
10276;DHT22;5183;51.190;6.820;2024-03-08T05:04:28;1.70;1.00
10276;DHT22;5183;51.190;6.820;2024-03-08T05:06:55;1.70;1.00
10276;DHT22;5183;51.190;6.820;2024-03-08T05:09:22;1.60;1.00
10276;DHT22;5183;51.190;6.820;2024-03-08T05:11:49;1.60;1.00
10276;DHT22;5183;51.190;6.820;2024-03-08T05:14:18;1.60;1.00
10276;DHT22;5183;51.190;6.820;2024-03-08T05:16:46;1.60;1.00
10276;DHT22;5183;51.190;6.820;2024-03-08T05:19:14;1.60;1.00
10276;DHT22;5183;51.190;6.820;2024-03-08T05:21:42;1.60;1.00
10276;DHT22;5183;51.190;6.820;2024-03-08T05:24:09;1.50;1.00
10276;DHT22;5183;51.190;6.820;2024-03-08T05:26:36;1.50;1.00
10276;DHT22;5183;51.190;6.820;2024-03-08T05:29:03;1.60;1.00
10276;DHT22;5183;51.190;6.820;2024-03-08T05:31:36;1.60;3.70
10276;DHT22;5183;51.190;6.820;2024-03-08T05:34:05;1.60;1.00
10276;DHT22;5183;51.190;6.820;2024-03-08T05:36:35;1.60;1.00
10276;DHT22;5183;51.190;6.820;2024-03-08T05:39:02;1.50;1.00
10276;DHT22;5183;51.190;6.820;2024-03-08T05:41:31;1.50;1.00
10276;DHT22;5183;51.190;6.820;2024-03-08T05:43:58;1.50;17.80
10276;DHT22;5183;51.190;6.820;2024-03-08T05:46:25;1.40;27.30
10276;DHT22;5183;51.190;6.820;2024-03-08T05:48:53;1.40;38.40
10276;DHT22;5183;51.190;6.820;2024-03-08T05:51:20;1.40;50.20
10276;DHT22;5183;51.190;6.820;2024-03-08T05:53:47;1.30;71.90
10276;DHT22;5183;51.190;6.820;2024-03-08T05:56:14;1.30;96.90
10276;DHT22;5183;51.190;6.820;2024-03-08T05:58:41;1.20;99.90
10276;DHT22;5183;51.190;6.820;2024-03-08T06:01:08;1.30;99.90
10276;DHT22;5183;51.190;6.820;2024-03-08T06:03:38;1.30;99.90
10276;DHT22;5183;51.190;6.820;2024-03-08T06:06:12;1.30;99.90
10276;DHT22;5183;51.190;6.820;2024-03-08T06:08:38;1.30;99.90
10276;DHT22;5183;51.190;6.820;2024-03-08T06:11:05;1.40;99.90
10276;DHT22;5183;51.190;6.820;2024-03-08T06:13:32;1.40;99.90
10276;DHT22;5183;51.190;6.820;2024-03-08T06:15:59;1.40;99.90
10276;DHT22;5183;51.190;6.820;2024-03-08T06:18:29;1.50;99.90
10276;DHT22;5183;51.190;6.820;2024-03-08T06:20:56;1.60;99.90
10276;DHT22;5183;51.190;6.820;2024-03-08T06:23:24;1.80;99.90
10276;DHT22;5183;51.190;6.820;2024-03-08T06:25:53;2.00;4.70
10276;DHT22;5183;51.190;6.820;2024-03-08T06:28:20;2.10;1.00
10276;DHT22;5183;51.190;6.820;2024-03-08T06:30:46;2.10;1.00
10276;DHT22;5183;51.190;6.820;2024-03-08T06:33:13;2.20;1.00
10276;DHT22;5183;51.190;6.820;2024-03-08T06:35:41;2.30;1.00
10276;DHT22;5183;51.190;6.820;2024-03-08T06:38:08;2.30;1.00
10276;DHT22;5183;51.190;6.820;2024-03-08T06:40:38;2.30;1.00
10276;DHT22;5183;51.190;6.820;2024-03-08T06:43:06;2.40;1.00
10276;DHT22;5183;51.190;6.820;2024-03-08T06:45:33;2.40;1.00
10276;DHT22;5183;51.190;6.820;2024-03-08T06:48:02;2.40;1.00
10276;DHT22;5183;51.190;6.820;2024-03-08T06:50:31;2.40;1.00
10276;DHT22;5183;51.190;6.820;2024-03-08T06:52:58;2.40;1.00
10276;DHT22;5183;51.190;6.820;2024-03-08T06:55:25;2.40;1.00
10276;DHT22;5183;51.190;6.820;2024-03-08T06:57:53;2.50;1.00
10276;DHT22;5183;51.190;6.820;2024-03-08T07:00:20;2.50;1.00
10276;DHT22;5183;51.190;6.820;2024-03-08T07:02:52;2.50;1.00
10276;DHT22;5183;51.190;6.820;2024-03-08T07:05:19;2.60;1.00
10276;DHT22;5183;51.190;6.820;2024-03-08T07:07:46;2.70;1.00
10276;DHT22;5183;51.190;6.820;2024-03-08T07:10:14;2.80;1.00
10276;DHT22;5183;51.190;6.820;2024-03-08T07:12:42;2.80;1.00
10276;DHT22;5183;51.190;6.820;2024-03-08T07:15:10;2.90;1.00
10276;DHT22;5183;51.190;6.820;2024-03-08T07:17:41;3.00;1.00
10276;DHT22;5183;51.190;6.820;2024-03-08T07:20:10;3.10;1.00
10276;DHT22;5183;51.190;6.820;2024-03-08T07:22:39;3.10;1.00
10276;DHT22;5183;51.190;6.820;2024-03-08T07:25:06;3.20;1.00
10276;DHT22;5183;51.190;6.820;2024-03-08T07:27:46;3.30;1.00
10276;DHT22;5183;51.190;6.820;2024-03-08T07:30:14;3.40;1.00
10276;DHT22;5183;51.190;6.820;2024-03-08T07:33:03;3.40;1.00
10276;DHT22;5183;51.190;6.820;2024-03-08T07:35:29;3.50;1.00
10276;DHT22;5183;51.190;6.820;2024-03-08T07:37:56;3.50;1.00
10276;DHT22;5183;51.190;6.820;2024-03-08T07:40:25;3.50;1.00
10276;DHT22;5183;51.190;6.820;2024-03-08T07:42:52;3.50;1.00
10276;DHT22;5183;51.190;6.820;2024-03-08T07:45:20;3.60;1.00
10276;DHT22;5183;51.190;6.820;2024-03-08T07:47:48;3.60;1.00
10276;DHT22;5183;51.190;6.820;2024-03-08T07:50:16;3.70;1.00
10276;DHT22;5183;51.190;6.820;2024-03-08T07:52:45;3.70;1.00
10276;DHT22;5183;51.190;6.820;2024-03-08T07:55:11;3.70;1.00
10276;DHT22;5183;51.190;6.820;2024-03-08T07:57:38;3.80;1.00
10276;DHT22;5183;51.190;6.820;2024-03-08T08:00:06;3.80;1.00
10276;DHT22;5183;51.190;6.820;2024-03-08T08:02:35;3.80;1.00
10276;DHT22;5183;51.190;6.820;2024-03-08T08:05:02;3.90;1.00
10276;DHT22;5183;51.190;6.820;2024-03-08T08:07:29;3.90;1.00
10276;DHT22;5183;51.190;6.820;2024-03-08T08:09:56;4.00;1.00
10276;DHT22;5183;51.190;6.820;2024-03-08T08:12:23;4.10;1.00
10276;DHT22;5183;51.190;6.820;2024-03-08T08:14:50;4.10;1.00
10276;DHT22;5183;51.190;6.820;2024-03-08T08:17:17;4.20;1.00
10276;DHT22;5183;51.190;6.820;2024-03-08T08:19:45;4.30;1.00
10276;DHT22;5183;51.190;6.820;2024-03-08T08:22:12;4.50;1.00
10276;DHT22;5183;51.190;6.820;2024-03-08T08:24:38;4.50;1.00
10276;DHT22;5183;51.190;6.820;2024-03-08T08:27:05;4.70;1.00
10276;DHT22;5183;51.190;6.820;2024-03-08T08:29:32;4.80;1.00
10276;DHT22;5183;51.190;6.820;2024-03-08T08:32:01;4.80;1.00
10276;DHT22;5183;51.190;6.820;2024-03-08T08:34:28;4.80;1.00
10276;DHT22;5183;51.190;6.820;2024-03-08T08:36:57;5.00;1.00
10276;DHT22;5183;51.190;6.820;2024-03-08T08:39:23;5.00;1.00
10276;DHT22;5183;51.190;6.820;2024-03-08T08:41:51;5.10;1.00
10276;DHT22;5183;51.190;6.820;2024-03-08T08:44:18;5.30;1.00
10276;DHT22;5183;51.190;6.820;2024-03-08T08:46:45;5.40;1.00
10276;DHT22;5183;51.190;6.820;2024-03-08T08:49:11;5.40;1.00
10276;DHT22;5183;51.190;6.820;2024-03-08T08:51:40;5.40;1.00
10276;DHT22;5183;51.190;6.820;2024-03-08T08:54:08;5.50;1.00
10276;DHT22;5183;51.190;6.820;2024-03-08T08:56:35;5.60;1.00
10276;DHT22;5183;51.190;6.820;2024-03-08T08:59:02;5.80;1.00
10276;DHT22;5183;51.190;6.820;2024-03-08T09:01:30;5.90;1.00
10276;DHT22;5183;51.190;6.820;2024-03-08T09:03:57;6.10;1.00
10276;DHT22;5183;51.190;6.820;2024-03-08T09:06:23;6.10;1.00
10276;DHT22;5183;51.190;6.820;2024-03-08T09:08:51;6.20;1.00
10276;DHT22;5183;51.190;6.820;2024-03-08T09:11:19;6.30;1.00
10276;DHT22;5183;51.190;6.820;2024-03-08T09:13:46;6.40;1.00
10276;DHT22;5183;51.190;6.820;2024-03-08T09:16:14;6.40;1.00
10276;DHT22;5183;51.190;6.820;2024-03-08T09:18:41;6.40;1.00
10276;DHT22;5183;51.190;6.820;2024-03-08T09:21:08;6.40;1.00
10276;DHT22;5183;51.190;6.820;2024-03-08T09:23:35;6.50;1.00
10276;DHT22;5183;51.190;6.820;2024-03-08T09:26:02;6.50;1.00
10276;DHT22;5183;51.190;6.820;2024-03-08T09:28:31;6.50;1.00
10276;DHT22;5183;51.190;6.820;2024-03-08T09:30:57;6.50;1.00
10276;DHT22;5183;51.190;6.820;2024-03-08T09:33:25;6.60;1.00
10276;DHT22;5183;51.190;6.820;2024-03-08T09:35:54;6.70;1.00
10276;DHT22;5183;51.190;6.820;2024-03-08T09:38:23;6.70;1.00
10276;DHT22;5183;51.190;6.820;2024-03-08T09:40:50;6.70;1.00
10276;DHT22;5183;51.190;6.820;2024-03-08T09:43:18;6.70;1.00
10276;DHT22;5183;51.190;6.820;2024-03-08T09:45:49;6.80;1.00
10276;DHT22;5183;51.190;6.820;2024-03-08T09:48:17;6.80;1.00
10276;DHT22;5183;51.190;6.820;2024-03-08T09:50:46;6.80;1.00
10276;DHT22;5183;51.190;6.820;2024-03-08T09:53:13;6.90;1.00
10276;DHT22;5183;51.190;6.820;2024-03-08T09:55:40;7.00;1.00
10276;DHT22;5183;51.190;6.820;2024-03-08T09:58:11;7.10;1.00
10276;DHT22;5183;51.190;6.820;2024-03-08T10:01:00;7.30;1.00
10276;DHT22;5183;51.190;6.820;2024-03-08T10:03:28;7.40;1.00
10276;DHT22;5183;51.190;6.820;2024-03-08T10:05:56;7.50;1.00
10276;DHT22;5183;51.190;6.820;2024-03-08T10:08:25;7.50;1.00
10276;DHT22;5183;51.190;6.820;2024-03-08T10:10:52;7.50;1.00
10276;DHT22;5183;51.190;6.820;2024-03-08T10:13:19;7.60;1.00
10276;DHT22;5183;51.190;6.820;2024-03-08T10:15:47;7.60;1.00
10276;DHT22;5183;51.190;6.820;2024-03-08T10:18:15;7.70;1.00
10276;DHT22;5183;51.190;6.820;2024-03-08T10:20:43;7.70;1.00
10276;DHT22;5183;51.190;6.820;2024-03-08T10:23:09;7.80;1.00
10276;DHT22;5183;51.190;6.820;2024-03-08T10:25:37;7.80;1.00
10276;DHT22;5183;51.190;6.820;2024-03-08T10:28:04;7.90;1.00
10276;DHT22;5183;51.190;6.820;2024-03-08T10:30:31;7.80;1.00
10276;DHT22;5183;51.190;6.820;2024-03-08T10:32:58;7.90;1.00
10276;DHT22;5183;51.190;6.820;2024-03-08T10:35:28;8.00;1.00
10276;DHT22;5183;51.190;6.820;2024-03-08T10:37:57;8.20;1.00
10276;DHT22;5183;51.190;6.820;2024-03-08T10:40:26;8.20;1.00
10276;DHT22;5183;51.190;6.820;2024-03-08T10:42:54;8.30;1.00
10276;DHT22;5183;51.190;6.820;2024-03-08T10:45:31;8.40;1.00
10276;DHT22;5183;51.190;6.820;2024-03-08T10:48:10;8.40;1.00
10276;DHT22;5183;51.190;6.820;2024-03-08T10:50:44;8.40;1.00
10276;DHT22;5183;51.190;6.820;2024-03-08T10:53:13;8.50;1.00
10276;DHT22;5183;51.190;6.820;2024-03-08T10:55:41;8.70;1.00
10276;DHT22;5183;51.190;6.820;2024-03-08T10:58:09;8.80;1.00
10276;DHT22;5183;51.190;6.820;2024-03-08T11:00:36;8.80;1.00
10276;DHT22;5183;51.190;6.820;2024-03-08T11:03:03;8.90;1.00
10276;DHT22;5183;51.190;6.820;2024-03-08T11:05:37;9.00;1.00
10276;DHT22;5183;51.190;6.820;2024-03-08T11:08:16;9.10;1.00
10276;DHT22;5183;51.190;6.820;2024-03-08T11:10:49;9.10;1.00
10276;DHT22;5183;51.190;6.820;2024-03-08T11:13:33;9.30;1.00
10276;DHT22;5183;51.190;6.820;2024-03-08T11:16:00;9.30;1.00
10276;DHT22;5183;51.190;6.820;2024-03-08T11:18:32;9.40;1.00
10276;DHT22;5183;51.190;6.820;2024-03-08T11:21:02;9.50;1.00
10276;DHT22;5183;51.190;6.820;2024-03-08T11:23:32;9.70;1.00
10276;DHT22;5183;51.190;6.820;2024-03-08T11:26:00;9.80;1.00
10276;DHT22;5183;51.190;6.820;2024-03-08T11:28:31;9.80;1.00
10276;DHT22;5183;51.190;6.820;2024-03-08T11:31:23;9.90;1.00
10276;DHT22;5183;51.190;6.820;2024-03-08T11:33:51;10.00;1.00
10276;DHT22;5183;51.190;6.820;2024-03-08T11:36:21;10.10;1.00
10276;DHT22;5183;51.190;6.820;2024-03-08T11:38:50;10.10;1.00
10276;DHT22;5183;51.190;6.820;2024-03-08T11:41:18;10.10;1.00
10276;DHT22;5183;51.190;6.820;2024-03-08T11:43:46;10.40;1.00
10276;DHT22;5183;51.190;6.820;2024-03-08T11:46:15;10.40;1.00
10276;DHT22;5183;51.190;6.820;2024-03-08T11:48:42;10.40;1.00
10276;DHT22;5183;51.190;6.820;2024-03-08T11:51:11;10.50;1.00
10276;DHT22;5183;51.190;6.820;2024-03-08T11:53:39;10.60;1.00
10276;DHT22;5183;51.190;6.820;2024-03-08T11:56:08;10.80;1.00
10276;DHT22;5183;51.190;6.820;2024-03-08T11:58:35;10.80;1.00
10276;DHT22;5183;51.190;6.820;2024-03-08T12:01:03;10.80;1.00
10276;DHT22;5183;51.190;6.820;2024-03-08T12:03:31;10.90;1.00
10276;DHT22;5183;51.190;6.820;2024-03-08T12:05:59;11.00;1.00
10276;DHT22;5183;51.190;6.820;2024-03-08T12:08:27;11.10;1.00
10276;DHT22;5183;51.190;6.820;2024-03-08T12:10:55;11.20;1.00
10276;DHT22;5183;51.190;6.820;2024-03-08T12:13:26;11.30;1.00
10276;DHT22;5183;51.190;6.820;2024-03-08T12:15:56;11.40;1.00
10276;DHT22;5183;51.190;6.820;2024-03-08T12:18:24;11.50;1.00
10276;DHT22;5183;51.190;6.820;2024-03-08T12:21:04;11.70;1.00
10276;DHT22;5183;51.190;6.820;2024-03-08T12:23:32;11.70;1.00
10276;DHT22;5183;51.190;6.820;2024-03-08T12:26:09;11.80;1.00
10276;DHT22;5183;51.190;6.820;2024-03-08T12:28:41;11.90;1.00
10276;DHT22;5183;51.190;6.820;2024-03-08T12:31:11;12.00;1.00
10276;DHT22;5183;51.190;6.820;2024-03-08T12:33:48;12.00;1.00
10276;DHT22;5183;51.190;6.820;2024-03-08T12:36:15;12.00;1.00
10276;DHT22;5183;51.190;6.820;2024-03-08T12:38:43;12.00;1.00
10276;DHT22;5183;51.190;6.820;2024-03-08T12:41:13;12.10;1.00
10276;DHT22;5183;51.190;6.820;2024-03-08T12:43:41;12.20;1.00
10276;DHT22;5183;51.190;6.820;2024-03-08T12:46:08;12.30;1.00
10276;DHT22;5183;51.190;6.820;2024-03-08T12:48:35;12.30;1.00
10276;DHT22;5183;51.190;6.820;2024-03-08T12:51:06;12.30;1.00
10276;DHT22;5183;51.190;6.820;2024-03-08T12:53:33;12.40;1.00
10276;DHT22;5183;51.190;6.820;2024-03-08T12:55:59;12.50;1.00
10276;DHT22;5183;51.190;6.820;2024-03-08T12:58:26;12.60;1.00
10276;DHT22;5183;51.190;6.820;2024-03-08T13:00:55;12.70;1.00
10276;DHT22;5183;51.190;6.820;2024-03-08T13:03:21;12.80;1.00
10276;DHT22;5183;51.190;6.820;2024-03-08T13:05:49;12.90;1.00
10276;DHT22;5183;51.190;6.820;2024-03-08T13:08:16;13.00;1.00
10276;DHT22;5183;51.190;6.820;2024-03-08T13:10:43;13.10;1.00
10276;DHT22;5183;51.190;6.820;2024-03-08T13:13:10;13.20;1.00
10276;DHT22;5183;51.190;6.820;2024-03-08T13:15:40;13.30;1.00
10276;DHT22;5183;51.190;6.820;2024-03-08T13:18:09;13.40;1.00
10276;DHT22;5183;51.190;6.820;2024-03-08T13:20:36;13.50;1.00
10276;DHT22;5183;51.190;6.820;2024-03-08T13:23:04;13.60;1.00
10276;DHT22;5183;51.190;6.820;2024-03-08T13:25:31;13.70;1.00
10276;DHT22;5183;51.190;6.820;2024-03-08T13:27:58;13.80;1.00
10276;DHT22;5183;51.190;6.820;2024-03-08T13:30:26;13.70;1.00
10276;DHT22;5183;51.190;6.820;2024-03-08T13:32:53;13.70;1.00
10276;DHT22;5183;51.190;6.820;2024-03-08T13:35:21;13.70;1.00
10276;DHT22;5183;51.190;6.820;2024-03-08T13:37:53;13.80;1.00
10276;DHT22;5183;51.190;6.820;2024-03-08T13:40:19;13.80;1.00
10276;DHT22;5183;51.190;6.820;2024-03-08T13:42:47;13.80;1.00
10276;DHT22;5183;51.190;6.820;2024-03-08T13:45:15;13.80;1.00
10276;DHT22;5183;51.190;6.820;2024-03-08T13:47:43;13.90;1.00
10276;DHT22;5183;51.190;6.820;2024-03-08T13:50:12;14.00;1.00
10276;DHT22;5183;51.190;6.820;2024-03-08T13:52:42;14.10;1.00
10276;DHT22;5183;51.190;6.820;2024-03-08T13:55:10;14.20;1.00
10276;DHT22;5183;51.190;6.820;2024-03-08T13:57:40;14.20;1.00
10276;DHT22;5183;51.190;6.820;2024-03-08T14:00:08;14.20;1.00
10276;DHT22;5183;51.190;6.820;2024-03-08T14:02:35;14.20;1.00
10276;DHT22;5183;51.190;6.820;2024-03-08T14:05:01;14.20;1.00
10276;DHT22;5183;51.190;6.820;2024-03-08T14:07:28;14.20;1.00
10276;DHT22;5183;51.190;6.820;2024-03-08T14:09:57;14.20;1.00
10276;DHT22;5183;51.190;6.820;2024-03-08T14:12:24;14.20;1.00
10276;DHT22;5183;51.190;6.820;2024-03-08T14:14:52;14.30;1.00
10276;DHT22;5183;51.190;6.820;2024-03-08T14:17:19;14.30;1.00
10276;DHT22;5183;51.190;6.820;2024-03-08T14:19:46;14.40;1.00
10276;DHT22;5183;51.190;6.820;2024-03-08T14:22:13;14.50;1.00
10276;DHT22;5183;51.190;6.820;2024-03-08T14:24:41;14.50;1.00
10276;DHT22;5183;51.190;6.820;2024-03-08T14:27:09;14.60;1.00
10276;DHT22;5183;51.190;6.820;2024-03-08T14:29:37;14.60;1.00
10276;DHT22;5183;51.190;6.820;2024-03-08T14:32:05;14.60;1.00
10276;DHT22;5183;51.190;6.820;2024-03-08T14:34:32;14.60;1.00
10276;DHT22;5183;51.190;6.820;2024-03-08T14:36:59;14.60;1.00
10276;DHT22;5183;51.190;6.820;2024-03-08T14:39:30;14.60;1.00
10276;DHT22;5183;51.190;6.820;2024-03-08T14:41:59;14.50;1.00
10276;DHT22;5183;51.190;6.820;2024-03-08T14:44:29;14.50;1.00
10276;DHT22;5183;51.190;6.820;2024-03-08T14:46:56;14.50;1.00
10276;DHT22;5183;51.190;6.820;2024-03-08T14:49:23;14.60;1.00
10276;DHT22;5183;51.190;6.820;2024-03-08T14:51:51;14.70;1.00
10276;DHT22;5183;51.190;6.820;2024-03-08T14:54:19;14.70;1.00
10276;DHT22;5183;51.190;6.820;2024-03-08T14:56:48;14.70;1.00
10276;DHT22;5183;51.190;6.820;2024-03-08T14:59:16;14.70;1.00
10276;DHT22;5183;51.190;6.820;2024-03-08T15:01:46;14.60;1.00
10276;DHT22;5183;51.190;6.820;2024-03-08T15:04:13;14.70;1.00
10276;DHT22;5183;51.190;6.820;2024-03-08T15:06:41;14.60;1.00
10276;DHT22;5183;51.190;6.820;2024-03-08T15:09:09;14.60;1.00
10276;DHT22;5183;51.190;6.820;2024-03-08T15:11:44;14.70;1.00
10276;DHT22;5183;51.190;6.820;2024-03-08T15:14:12;14.70;1.00
10276;DHT22;5183;51.190;6.820;2024-03-08T15:16:39;14.60;1.00
10276;DHT22;5183;51.190;6.820;2024-03-08T15:19:08;14.70;1.00
10276;DHT22;5183;51.190;6.820;2024-03-08T15:21:37;14.70;1.00
10276;DHT22;5183;51.190;6.820;2024-03-08T15:24:05;14.60;1.00
10276;DHT22;5183;51.190;6.820;2024-03-08T15:26:35;14.60;1.00
10276;DHT22;5183;51.190;6.820;2024-03-08T15:29:02;14.70;1.00
10276;DHT22;5183;51.190;6.820;2024-03-08T15:31:30;14.70;1.00
10276;DHT22;5183;51.190;6.820;2024-03-08T15:33:58;14.70;1.00
10276;DHT22;5183;51.190;6.820;2024-03-08T15:36:32;14.70;1.00
10276;DHT22;5183;51.190;6.820;2024-03-08T15:38:59;14.70;1.00
10276;DHT22;5183;51.190;6.820;2024-03-08T15:41:26;14.70;1.00
10276;DHT22;5183;51.190;6.820;2024-03-08T15:43:55;14.70;1.00
10276;DHT22;5183;51.190;6.820;2024-03-08T15:46:22;14.60;1.00
10276;DHT22;5183;51.190;6.820;2024-03-08T15:48:50;14.50;1.00
10276;DHT22;5183;51.190;6.820;2024-03-08T15:51:18;14.40;1.00
10276;DHT22;5183;51.190;6.820;2024-03-08T15:53:46;14.30;1.00
10276;DHT22;5183;51.190;6.820;2024-03-08T15:56:19;14.30;1.00
10276;DHT22;5183;51.190;6.820;2024-03-08T15:58:46;14.10;1.00
10276;DHT22;5183;51.190;6.820;2024-03-08T16:01:13;14.00;1.00
10276;DHT22;5183;51.190;6.820;2024-03-08T16:03:42;14.00;1.00
10276;DHT22;5183;51.190;6.820;2024-03-08T16:06:10;14.00;1.00
10276;DHT22;5183;51.190;6.820;2024-03-08T16:08:37;13.90;1.00
10276;DHT22;5183;51.190;6.820;2024-03-08T16:11:06;13.90;1.00
10276;DHT22;5183;51.190;6.820;2024-03-08T16:13:34;13.80;1.00
10276;DHT22;5183;51.190;6.820;2024-03-08T16:16:04;13.80;1.00
10276;DHT22;5183;51.190;6.820;2024-03-08T16:18:31;13.70;1.00